sensor_id;sensor_type;location;lat;lon;timestamp;temperature;humidity
12911;DHT22;6523;49.758;6.120;2022-07-23T00:00:03;18.70;99.90
12911;DHT22;6523;49.758;6.120;2022-07-23T00:02:29;18.70;99.90
12911;DHT22;6523;49.758;6.120;2022-07-23T00:04:54;18.80;99.90
12911;DHT22;6523;49.758;6.120;2022-07-23T00:07:20;18.90;99.90
12911;DHT22;6523;49.758;6.120;2022-07-23T00:09:45;18.90;99.90
12911;DHT22;6523;49.758;6.120;2022-07-23T00:12:11;19.00;99.90
12911;DHT22;6523;49.758;6.120;2022-07-23T00:14:36;19.10;99.90
12911;DHT22;6523;49.758;6.120;2022-07-23T00:17:02;19.10;99.90
12911;DHT22;6523;49.758;6.120;2022-07-23T00:19:28;19.10;99.90
12911;DHT22;6523;49.758;6.120;2022-07-23T00:21:54;19.10;99.90
12911;DHT22;6523;49.758;6.120;2022-07-23T00:24:20;19.10;99.90
12911;DHT22;6523;49.758;6.120;2022-07-23T00:26:46;19.10;99.90
12911;DHT22;6523;49.758;6.120;2022-07-23T00:29:11;19.10;99.90
12911;DHT22;6523;49.758;6.120;2022-07-23T00:31:37;19.10;99.90
12911;DHT22;6523;49.758;6.120;2022-07-23T00:34:03;18.90;99.90
12911;DHT22;6523;49.758;6.120;2022-07-23T00:36:28;18.70;99.90
12911;DHT22;6523;49.758;6.120;2022-07-23T00:38:56;18.50;99.90
12911;DHT22;6523;49.758;6.120;2022-07-23T00:41:22;18.30;99.90
12911;DHT22;6523;49.758;6.120;2022-07-23T00:43:47;18.30;99.90
12911;DHT22;6523;49.758;6.120;2022-07-23T00:46:21;18.10;99.90
12911;DHT22;6523;49.758;6.120;2022-07-23T00:48:48;18.10;99.90
12911;DHT22;6523;49.758;6.120;2022-07-23T00:51:15;18.10;99.90
12911;DHT22;6523;49.758;6.120;2022-07-23T00:53:42;18.20;99.90
12911;DHT22;6523;49.758;6.120;2022-07-23T00:56:07;18.40;99.90
12911;DHT22;6523;49.758;6.120;2022-07-23T00:58:35;18.50;99.90
12911;DHT22;6523;49.758;6.120;2022-07-23T01:01:01;18.60;99.90
12911;DHT22;6523;49.758;6.120;2022-07-23T01:03:27;18.60;99.90
12911;DHT22;6523;49.758;6.120;2022-07-23T01:05:53;18.70;99.90
12911;DHT22;6523;49.758;6.120;2022-07-23T01:08:19;18.70;99.90
12911;DHT22;6523;49.758;6.120;2022-07-23T01:10:46;18.60;99.90
12911;DHT22;6523;49.758;6.120;2022-07-23T01:13:12;18.50;99.90
12911;DHT22;6523;49.758;6.120;2022-07-23T01:15:38;18.40;99.90
12911;DHT22;6523;49.758;6.120;2022-07-23T01:18:05;18.30;99.90
12911;DHT22;6523;49.758;6.120;2022-07-23T01:20:31;18.30;99.90
12911;DHT22;6523;49.758;6.120;2022-07-23T01:22:57;18.30;99.90
12911;DHT22;6523;49.758;6.120;2022-07-23T01:25:23;18.20;99.90
12911;DHT22;6523;49.758;6.120;2022-07-23T01:27:49;18.10;99.90
12911;DHT22;6523;49.758;6.120;2022-07-23T01:30:16;18.00;99.90
12911;DHT22;6523;49.758;6.120;2022-07-23T01:32:42;17.90;99.90
12911;DHT22;6523;49.758;6.120;2022-07-23T01:35:08;17.80;99.90
12911;DHT22;6523;49.758;6.120;2022-07-23T01:37:35;17.80;99.90
12911;DHT22;6523;49.758;6.120;2022-07-23T01:40:02;17.70;99.90
12911;DHT22;6523;49.758;6.120;2022-07-23T01:42:27;17.60;99.90
12911;DHT22;6523;49.758;6.120;2022-07-23T01:44:53;17.40;99.90
12911;DHT22;6523;49.758;6.120;2022-07-23T01:47:19;17.40;99.90
12911;DHT22;6523;49.758;6.120;2022-07-23T01:49:44;17.50;99.90
12911;DHT22;6523;49.758;6.120;2022-07-23T01:52:10;17.50;99.90
12911;DHT22;6523;49.758;6.120;2022-07-23T01:54:37;17.60;99.90
12911;DHT22;6523;49.758;6.120;2022-07-23T01:57:04;17.50;99.90
12911;DHT22;6523;49.758;6.120;2022-07-23T01:59:30;17.50;99.90
12911;DHT22;6523;49.758;6.120;2022-07-23T02:01:55;17.60;99.90
12911;DHT22;6523;49.758;6.120;2022-07-23T02:04:22;17.60;99.90
12911;DHT22;6523;49.758;6.120;2022-07-23T02:06:48;17.30;99.90
12911;DHT22;6523;49.758;6.120;2022-07-23T02:09:14;17.00;99.90
12911;DHT22;6523;49.758;6.120;2022-07-23T02:11:40;17.00;99.90
12911;DHT22;6523;49.758;6.120;2022-07-23T02:14:06;17.00;99.90
12911;DHT22;6523;49.758;6.120;2022-07-23T02:16:31;16.80;99.90
12911;DHT22;6523;49.758;6.120;2022-07-23T02:18:57;16.90;99.90
12911;DHT22;6523;49.758;6.120;2022-07-23T02:21:23;16.80;99.90
12911;DHT22;6523;49.758;6.120;2022-07-23T02:23:48;16.80;99.90
12911;DHT22;6523;49.758;6.120;2022-07-23T02:26:14;16.90;99.90
12911;DHT22;6523;49.758;6.120;2022-07-23T02:28:40;17.10;99.90
12911;DHT22;6523;49.758;6.120;2022-07-23T02:31:05;16.90;99.90
12911;DHT22;6523;49.758;6.120;2022-07-23T02:33:32;16.90;99.90
12911;DHT22;6523;49.758;6.120;2022-07-23T02:35:58;16.80;99.90
12911;DHT22;6523;49.758;6.120;2022-07-23T02:38:24;16.80;99.90
12911;DHT22;6523;49.758;6.120;2022-07-23T02:40:50;16.90;99.90
12911;DHT22;6523;49.758;6.120;2022-07-23T02:43:15;16.80;99.90
12911;DHT22;6523;49.758;6.120;2022-07-23T02:45:41;16.50;99.90
12911;DHT22;6523;49.758;6.120;2022-07-23T02:48:06;16.50;99.90
12911;DHT22;6523;49.758;6.120;2022-07-23T02:50:32;16.40;99.90
12911;DHT22;6523;49.758;6.120;2022-07-23T02:52:58;16.30;99.90
12911;DHT22;6523;49.758;6.120;2022-07-23T02:55:23;16.30;99.90
12911;DHT22;6523;49.758;6.120;2022-07-23T02:57:49;16.30;99.90
12911;DHT22;6523;49.758;6.120;2022-07-23T03:00:15;16.40;99.90
12911;DHT22;6523;49.758;6.120;2022-07-23T03:02:40;16.20;99.90
12911;DHT22;6523;49.758;6.120;2022-07-23T03:05:06;16.00;99.90
12911;DHT22;6523;49.758;6.120;2022-07-23T03:07:32;15.90;99.90
12911;DHT22;6523;49.758;6.120;2022-07-23T03:09:57;15.90;99.90
12911;DHT22;6523;49.758;6.120;2022-07-23T03:12:23;15.80;99.90
12911;DHT22;6523;49.758;6.120;2022-07-23T03:14:49;15.80;99.90
12911;DHT22;6523;49.758;6.120;2022-07-23T03:17:14;15.70;99.90
12911;DHT22;6523;49.758;6.120;2022-07-23T03:19:40;15.60;99.90
12911;DHT22;6523;49.758;6.120;2022-07-23T03:22:06;15.70;99.90
12911;DHT22;6523;49.758;6.120;2022-07-23T03:24:31;15.70;99.90
12911;DHT22;6523;49.758;6.120;2022-07-23T03:27:16;15.60;99.90
12911;DHT22;6523;49.758;6.120;2022-07-23T03:29:41;15.60;99.90
12911;DHT22;6523;49.758;6.120;2022-07-23T03:32:07;15.60;99.90
12911;DHT22;6523;49.758;6.120;2022-07-23T03:34:33;15.60;99.90
12911;DHT22;6523;49.758;6.120;2022-07-23T03:36:58;15.50;99.90
12911;DHT22;6523;49.758;6.120;2022-07-23T03:39:24;15.50;99.90
12911;DHT22;6523;49.758;6.120;2022-07-23T03:41:50;15.50;99.90
12911;DHT22;6523;49.758;6.120;2022-07-23T03:44:15;15.60;99.90
12911;DHT22;6523;49.758;6.120;2022-07-23T03:46:41;15.50;99.90
12911;DHT22;6523;49.758;6.120;2022-07-23T03:49:06;15.60;99.90
12911;DHT22;6523;49.758;6.120;2022-07-23T03:51:32;15.70;99.90
12911;DHT22;6523;49.758;6.120;2022-07-23T03:53:58;15.60;99.90
12911;DHT22;6523;49.758;6.120;2022-07-23T03:56:24;15.50;99.90
12911;DHT22;6523;49.758;6.120;2022-07-23T03:58:49;15.50;99.90
12911;DHT22;6523;49.758;6.120;2022-07-23T04:01:15;15.50;99.90
12911;DHT22;6523;49.758;6.120;2022-07-23T04:03:41;15.50;99.90
12911;DHT22;6523;49.758;6.120;2022-07-23T04:06:07;15.50;99.90
12911;DHT22;6523;49.758;6.120;2022-07-23T04:08:32;15.50;99.90
12911;DHT22;6523;49.758;6.120;2022-07-23T04:10:58;15.60;99.90
12911;DHT22;6523;49.758;6.120;2022-07-23T04:13:23;15.70;99.90
12911;DHT22;6523;49.758;6.120;2022-07-23T04:15:49;15.80;99.90
12911;DHT22;6523;49.758;6.120;2022-07-23T04:18:17;15.70;99.90
12911;DHT22;6523;49.758;6.120;2022-07-23T04:20:43;15.80;99.90
12911;DHT22;6523;49.758;6.120;2022-07-23T04:23:09;15.60;99.90
12911;DHT22;6523;49.758;6.120;2022-07-23T04:25:35;15.50;99.90
12911;DHT22;6523;49.758;6.120;2022-07-23T04:28:01;15.40;99.90
12911;DHT22;6523;49.758;6.120;2022-07-23T04:30:27;15.40;99.90
12911;DHT22;6523;49.758;6.120;2022-07-23T04:32:52;15.40;99.90
12911;DHT22;6523;49.758;6.120;2022-07-23T04:35:18;15.40;99.90
12911;DHT22;6523;49.758;6.120;2022-07-23T04:37:44;15.40;99.90
12911;DHT22;6523;49.758;6.120;2022-07-23T04:40:10;15.40;99.90
12911;DHT22;6523;49.758;6.120;2022-07-23T04:42:36;15.50;99.90
12911;DHT22;6523;49.758;6.120;2022-07-23T04:45:02;15.70;99.90
12911;DHT22;6523;49.758;6.120;2022-07-23T04:47:29;15.80;99.90
12911;DHT22;6523;49.758;6.120;2022-07-23T04:49:55;15.80;99.90
12911;DHT22;6523;49.758;6.120;2022-07-23T04:52:20;15.80;99.90
12911;DHT22;6523;49.758;6.120;2022-07-23T04:54:46;15.70;99.90
12911;DHT22;6523;49.758;6.120;2022-07-23T04:57:11;15.80;99.90
12911;DHT22;6523;49.758;6.120;2022-07-23T04:59:37;15.90;99.90
12911;DHT22;6523;49.758;6.120;2022-07-23T05:02:02;15.90;99.90
12911;DHT22;6523;49.758;6.120;2022-07-23T05:04:28;16.00;99.90
12911;DHT22;6523;49.758;6.120;2022-07-23T05:06:54;16.00;99.90
12911;DHT22;6523;49.758;6.120;2022-07-23T05:09:19;15.90;99.90
12911;DHT22;6523;49.758;6.120;2022-07-23T05:11:45;15.80;99.90
12911;DHT22;6523;49.758;6.120;2022-07-23T05:14:10;15.80;99.90
12911;DHT22;6523;49.758;6.120;2022-07-23T05:16:38;15.70;99.90
12911;DHT22;6523;49.758;6.120;2022-07-23T05:19:03;15.90;99.90
12911;DHT22;6523;49.758;6.120;2022-07-23T05:21:29;16.00;99.90
12911;DHT22;6523;49.758;6.120;2022-07-23T05:23:55;16.20;99.90
12911;DHT22;6523;49.758;6.120;2022-07-23T05:26:20;16.20;99.90
12911;DHT22;6523;49.758;6.120;2022-07-23T05:28:46;16.30;99.90
12911;DHT22;6523;49.758;6.120;2022-07-23T05:31:11;16.30;99.90
12911;DHT22;6523;49.758;6.120;2022-07-23T05:33:37;16.40;99.90
12911;DHT22;6523;49.758;6.120;2022-07-23T05:36:04;16.30;99.90
12911;DHT22;6523;49.758;6.120;2022-07-23T05:38:31;16.50;99.90
12911;DHT22;6523;49.758;6.120;2022-07-23T05:40:57;16.40;99.90
12911;DHT22;6523;49.758;6.120;2022-07-23T05:43:22;16.40;99.90
12911;DHT22;6523;49.758;6.120;2022-07-23T05:45:48;16.50;99.90
12911;DHT22;6523;49.758;6.120;2022-07-23T05:48:13;16.70;99.90
12911;DHT22;6523;49.758;6.120;2022-07-23T05:50:39;16.80;99.90
12911;DHT22;6523;49.758;6.120;2022-07-23T05:53:04;16.90;99.90
12911;DHT22;6523;49.758;6.120;2022-07-23T05:55:30;17.00;99.90
12911;DHT22;6523;49.758;6.120;2022-07-23T05:57:57;17.20;99.90
12911;DHT22;6523;49.758;6.120;2022-07-23T06:00:23;17.30;99.90
12911;DHT22;6523;49.758;6.120;2022-07-23T06:02:49;17.30;99.90
12911;DHT22;6523;49.758;6.120;2022-07-23T06:05:15;17.40;99.90
12911;DHT22;6523;49.758;6.120;2022-07-23T06:07:41;17.50;99.90
12911;DHT22;6523;49.758;6.120;2022-07-23T06:10:07;17.40;99.90
12911;DHT22;6523;49.758;6.120;2022-07-23T06:12:33;17.50;99.90
12911;DHT22;6523;49.758;6.120;2022-07-23T06:14:59;17.60;99.90
12911;DHT22;6523;49.758;6.120;2022-07-23T06:17:25;17.50;99.90
12911;DHT22;6523;49.758;6.120;2022-07-23T06:19:50;17.50;99.90
12911;DHT22;6523;49.758;6.120;2022-07-23T06:22:16;17.40;99.90
12911;DHT22;6523;49.758;6.120;2022-07-23T06:24:41;17.50;99.90
12911;DHT22;6523;49.758;6.120;2022-07-23T06:27:07;17.70;99.90
12911;DHT22;6523;49.758;6.120;2022-07-23T06:29:33;17.80;99.90
12911;DHT22;6523;49.758;6.120;2022-07-23T06:31:58;18.00;99.90
12911;DHT22;6523;49.758;6.120;2022-07-23T06:34:24;18.00;99.90
12911;DHT22;6523;49.758;6.120;2022-07-23T06:36:51;18.10;99.90
12911;DHT22;6523;49.758;6.120;2022-07-23T06:39:16;18.30;99.90
12911;DHT22;6523;49.758;6.120;2022-07-23T06:41:42;18.50;99.90
12911;DHT22;6523;49.758;6.120;2022-07-23T06:44:07;18.80;99.90
12911;DHT22;6523;49.758;6.120;2022-07-23T06:46:33;19.00;99.90
12911;DHT22;6523;49.758;6.120;2022-07-23T06:48:59;19.10;99.90
12911;DHT22;6523;49.758;6.120;2022-07-23T06:51:24;19.20;99.90
12911;DHT22;6523;49.758;6.120;2022-07-23T06:53:50;19.10;99.90
12911;DHT22;6523;49.758;6.120;2022-07-23T06:56:16;19.00;99.90
12911;DHT22;6523;49.758;6.120;2022-07-23T06:58:41;19.10;99.90
12911;DHT22;6523;49.758;6.120;2022-07-23T07:01:07;19.10;99.90
12911;DHT22;6523;49.758;6.120;2022-07-23T07:03:32;19.30;99.90
12911;DHT22;6523;49.758;6.120;2022-07-23T07:05:58;19.40;99.90
12911;DHT22;6523;49.758;6.120;2022-07-23T07:08:24;19.50;99.90
12911;DHT22;6523;49.758;6.120;2022-07-23T07:10:50;19.50;99.90
12911;DHT22;6523;49.758;6.120;2022-07-23T07:13:16;19.60;99.90
12911;DHT22;6523;49.758;6.120;2022-07-23T07:15:41;19.80;99.90
12911;DHT22;6523;49.758;6.120;2022-07-23T07:18:07;19.80;99.90
12911;DHT22;6523;49.758;6.120;2022-07-23T07:20:33;19.80;99.90
12911;DHT22;6523;49.758;6.120;2022-07-23T07:22:58;20.10;99.90
12911;DHT22;6523;49.758;6.120;2022-07-23T07:25:24;20.20;99.90
12911;DHT22;6523;49.758;6.120;2022-07-23T07:27:49;20.20;99.90
12911;DHT22;6523;49.758;6.120;2022-07-23T07:30:15;20.30;99.90
12911;DHT22;6523;49.758;6.120;2022-07-23T07:32:41;20.00;99.90
12911;DHT22;6523;49.758;6.120;2022-07-23T07:35:07;20.20;99.90
12911;DHT22;6523;49.758;6.120;2022-07-23T07:37:33;20.40;99.90
12911;DHT22;6523;49.758;6.120;2022-07-23T07:39:58;20.60;99.90
12911;DHT22;6523;49.758;6.120;2022-07-23T07:42:24;20.50;99.90
12911;DHT22;6523;49.758;6.120;2022-07-23T07:44:50;20.70;99.90
12911;DHT22;6523;49.758;6.120;2022-07-23T07:47:15;20.70;99.90
12911;DHT22;6523;49.758;6.120;2022-07-23T07:49:42;21.00;99.90
12911;DHT22;6523;49.758;6.120;2022-07-23T07:52:07;21.40;99.90
12911;DHT22;6523;49.758;6.120;2022-07-23T07:54:33;21.50;99.90
12911;DHT22;6523;49.758;6.120;2022-07-23T07:56:59;21.40;99.90
12911;DHT22;6523;49.758;6.120;2022-07-23T07:59:24;21.50;99.90
12911;DHT22;6523;49.758;6.120;2022-07-23T08:01:50;21.80;99.90
12911;DHT22;6523;49.758;6.120;2022-07-23T08:04:16;21.90;99.90
12911;DHT22;6523;49.758;6.120;2022-07-23T08:06:42;21.90;99.90
12911;DHT22;6523;49.758;6.120;2022-07-23T08:09:07;22.50;99.90
12911;DHT22;6523;49.758;6.120;2022-07-23T08:11:33;22.90;99.90
12911;DHT22;6523;49.758;6.120;2022-07-23T08:13:59;23.10;99.90
12911;DHT22;6523;49.758;6.120;2022-07-23T08:16:24;22.80;99.90
12911;DHT22;6523;49.758;6.120;2022-07-23T08:18:50;22.70;99.90
12911;DHT22;6523;49.758;6.120;2022-07-23T08:21:15;22.80;99.90
12911;DHT22;6523;49.758;6.120;2022-07-23T08:23:41;23.20;99.90
12911;DHT22;6523;49.758;6.120;2022-07-23T08:26:06;23.80;99.90
12911;DHT22;6523;49.758;6.120;2022-07-23T08:28:32;23.80;99.90
12911;DHT22;6523;49.758;6.120;2022-07-23T08:30:59;23.40;99.90
12911;DHT22;6523;49.758;6.120;2022-07-23T08:33:25;23.80;99.90
12911;DHT22;6523;49.758;6.120;2022-07-23T08:35:51;23.80;99.90
12911;DHT22;6523;49.758;6.120;2022-07-23T08:38:21;23.90;99.90
12911;DHT22;6523;49.758;6.120;2022-07-23T08:40:52;24.10;99.90
12911;DHT22;6523;49.758;6.120;2022-07-23T08:43:20;24.00;99.90
12911;DHT22;6523;49.758;6.120;2022-07-23T08:45:48;24.20;99.90
12911;DHT22;6523;49.758;6.120;2022-07-23T08:48:16;23.80;99.90
12911;DHT22;6523;49.758;6.120;2022-07-23T08:50:44;23.90;99.90
12911;DHT22;6523;49.758;6.120;2022-07-23T08:53:10;24.70;99.90
12911;DHT22;6523;49.758;6.120;2022-07-23T08:55:36;24.30;99.90
12911;DHT22;6523;49.758;6.120;2022-07-23T08:58:02;24.60;99.90
12911;DHT22;6523;49.758;6.120;2022-07-23T09:00:28;25.10;99.90
12911;DHT22;6523;49.758;6.120;2022-07-23T09:02:53;25.10;99.90
12911;DHT22;6523;49.758;6.120;2022-07-23T09:05:20;25.30;99.90
12911;DHT22;6523;49.758;6.120;2022-07-23T09:08:05;24.70;99.90
12911;DHT22;6523;49.758;6.120;2022-07-23T09:10:58;25.00;99.90
12911;DHT22;6523;49.758;6.120;2022-07-23T09:13:53;25.00;99.90
12911;DHT22;6523;49.758;6.120;2022-07-23T09:16:28;25.20;99.90
12911;DHT22;6523;49.758;6.120;2022-07-23T09:18:55;25.50;99.90
12911;DHT22;6523;49.758;6.120;2022-07-23T09:26:43;26.20;99.90
12911;DHT22;6523;49.758;6.120;2022-07-23T09:29:11;26.40;99.90
12911;DHT22;6523;49.758;6.120;2022-07-23T09:32:00;26.80;99.90
12911;DHT22;6523;49.758;6.120;2022-07-23T09:34:30;26.60;99.90
12911;DHT22;6523;49.758;6.120;2022-07-23T09:37:09;26.50;99.90
12911;DHT22;6523;49.758;6.120;2022-07-23T09:39:35;26.10;99.90
12911;DHT22;6523;49.758;6.120;2022-07-23T09:42:24;26.30;99.90
12911;DHT22;6523;49.758;6.120;2022-07-23T09:44:52;25.90;99.90
12911;DHT22;6523;49.758;6.120;2022-07-23T09:47:19;25.90;99.90
12911;DHT22;6523;49.758;6.120;2022-07-23T09:50:08;26.30;99.90
12911;DHT22;6523;49.758;6.120;2022-07-23T09:52:44;27.00;99.90
12911;DHT22;6523;49.758;6.120;2022-07-23T09:55:10;27.30;99.90
12911;DHT22;6523;49.758;6.120;2022-07-23T09:57:35;26.80;99.90
12911;DHT22;6523;49.758;6.120;2022-07-23T10:00:05;26.00;99.90
12911;DHT22;6523;49.758;6.120;2022-07-23T10:02:32;26.10;99.90
12911;DHT22;6523;49.758;6.120;2022-07-23T10:04:59;26.00;99.90
12911;DHT22;6523;49.758;6.120;2022-07-23T10:07:26;25.80;99.90
12911;DHT22;6523;49.758;6.120;2022-07-23T10:09:55;26.50;99.90
12911;DHT22;6523;49.758;6.120;2022-07-23T10:12:21;27.60;99.90
12911;DHT22;6523;49.758;6.120;2022-07-23T10:15:11;28.10;99.90
12911;DHT22;6523;49.758;6.120;2022-07-23T10:17:37;28.70;99.90
12911;DHT22;6523;49.758;6.120;2022-07-23T10:20:03;28.50;99.90
12911;DHT22;6523;49.758;6.120;2022-07-23T10:22:44;28.20;99.90
12911;DHT22;6523;49.758;6.120;2022-07-23T10:31:26;28.00;99.90
12911;DHT22;6523;49.758;6.120;2022-07-23T10:36:19;27.60;99.90
12911;DHT22;6523;49.758;6.120;2022-07-23T10:39:05;27.10;99.90
12911;DHT22;6523;49.758;6.120;2022-07-23T10:41:38;26.70;99.40
12911;DHT22;6523;49.758;6.120;2022-07-23T10:44:21;26.80;99.90
12911;DHT22;6523;49.758;6.120;2022-07-23T10:46:58;27.20;96.50
12911;DHT22;6523;49.758;6.120;2022-07-23T10:49:43;27.10;94.20
12911;DHT22;6523;49.758;6.120;2022-07-23T10:52:24;28.20;97.70
12911;DHT22;6523;49.758;6.120;2022-07-23T10:54:56;29.00;96.80
12911;DHT22;6523;49.758;6.120;2022-07-23T10:57:27;30.60;98.00
12911;DHT22;6523;49.758;6.120;2022-07-23T11:02:33;29.90;70.30
12911;DHT22;6523;49.758;6.120;2022-07-23T11:05:19;29.10;65.20
12911;DHT22;6523;49.758;6.120;2022-07-23T11:31:54;30.30;32.20
12911;DHT22;6523;49.758;6.120;2022-07-23T11:36:57;29.80;23.10
12911;DHT22;6523;49.758;6.120;2022-07-23T11:39:26;29.40;20.50
12911;DHT22;6523;49.758;6.120;2022-07-23T11:41:52;28.90;18.50
12911;DHT22;6523;49.758;6.120;2022-07-23T11:44:36;28.80;15.50
12911;DHT22;6523;49.758;6.120;2022-07-23T11:47:10;28.70;14.50
12911;DHT22;6523;49.758;6.120;2022-07-23T11:49:37;29.20;14.90
12911;DHT22;6523;49.758;6.120;2022-07-23T11:54:32;30.00;10.40
12911;DHT22;6523;49.758;6.120;2022-07-23T11:56:59;29.80;11.70
12911;DHT22;6523;49.758;6.120;2022-07-23T11:59:26;29.80;7.30
12911;DHT22;6523;49.758;6.120;2022-07-23T12:02:00;29.20;6.00
12911;DHT22;6523;49.758;6.120;2022-07-23T12:04:40;29.00;4.00
12911;DHT22;6523;49.758;6.120;2022-07-23T12:09:59;29.50;1.00
12911;DHT22;6523;49.758;6.120;2022-07-23T12:12:25;28.90;1.00
12911;DHT22;6523;49.758;6.120;2022-07-23T12:14:56;29.10;2.70
12911;DHT22;6523;49.758;6.120;2022-07-23T12:17:30;29.40;1.00
12911;DHT22;6523;49.758;6.120;2022-07-23T12:20:01;28.90;1.00
12911;DHT22;6523;49.758;6.120;2022-07-23T12:22:38;29.10;1.00
12911;DHT22;6523;49.758;6.120;2022-07-23T12:25:13;29.00;1.00
12911;DHT22;6523;49.758;6.120;2022-07-23T12:27:40;30.60;1.00
12911;DHT22;6523;49.758;6.120;2022-07-23T12:30:26;31.90;1.00
12911;DHT22;6523;49.758;6.120;2022-07-23T12:32:54;31.80;1.00
12911;DHT22;6523;49.758;6.120;2022-07-23T12:35:22;30.80;1.00
12911;DHT22;6523;49.758;6.120;2022-07-23T12:37:49;30.80;1.00
12911;DHT22;6523;49.758;6.120;2022-07-23T12:40:27;30.50;1.00
12911;DHT22;6523;49.758;6.120;2022-07-23T12:43:06;31.40;1.00
12911;DHT22;6523;49.758;6.120;2022-07-23T12:45:44;31.20;1.00
12911;DHT22;6523;49.758;6.120;2022-07-23T12:48:19;31.50;1.00
12911;DHT22;6523;49.758;6.120;2022-07-23T12:51:18;30.70;1.00
12911;DHT22;6523;49.758;6.120;2022-07-23T12:53:49;30.00;1.00
12911;DHT22;6523;49.758;6.120;2022-07-23T12:56:18;30.50;1.00
12911;DHT22;6523;49.758;6.120;2022-07-23T13:04:08;29.50;1.00
12911;DHT22;6523;49.758;6.120;2022-07-23T13:09:10;31.00;1.00
12911;DHT22;6523;49.758;6.120;2022-07-23T13:11:37;31.10;1.00
12911;DHT22;6523;49.758;6.120;2022-07-23T13:14:03;29.50;1.00
12911;DHT22;6523;49.758;6.120;2022-07-23T13:16:30;29.70;1.00
12911;DHT22;6523;49.758;6.120;2022-07-23T13:18:56;29.10;1.00
12911;DHT22;6523;49.758;6.120;2022-07-23T13:21:23;29.70;1.00
12911;DHT22;6523;49.758;6.120;2022-07-23T13:23:49;30.70;1.00
12911;DHT22;6523;49.758;6.120;2022-07-23T13:26:15;30.40;1.00
12911;DHT22;6523;49.758;6.120;2022-07-23T13:28:41;29.30;1.00
12911;DHT22;6523;49.758;6.120;2022-07-23T13:31:07;29.80;1.00
12911;DHT22;6523;49.758;6.120;2022-07-23T13:33:33;29.20;1.00
12911;DHT22;6523;49.758;6.120;2022-07-23T13:35:59;29.70;1.00
12911;DHT22;6523;49.758;6.120;2022-07-23T13:38:24;29.90;1.00
12911;DHT22;6523;49.758;6.120;2022-07-23T13:40:51;30.30;1.00
12911;DHT22;6523;49.758;6.120;2022-07-23T13:43:20;31.40;1.00
12911;DHT22;6523;49.758;6.120;2022-07-23T13:45:46;31.80;1.00
12911;DHT22;6523;49.758;6.120;2022-07-23T13:48:13;30.70;1.00
12911;DHT22;6523;49.758;6.120;2022-07-23T13:50:40;28.50;1.00
12911;DHT22;6523;49.758;6.120;2022-07-23T13:53:08;28.20;1.00
12911;DHT22;6523;49.758;6.120;2022-07-23T13:55:35;28.30;1.00
12911;DHT22;6523;49.758;6.120;2022-07-23T13:58:01;28.00;1.00
12911;DHT22;6523;49.758;6.120;2022-07-23T14:00:27;28.40;1.00
12911;DHT22;6523;49.758;6.120;2022-07-23T14:02:53;28.40;1.00
12911;DHT22;6523;49.758;6.120;2022-07-23T14:05:19;27.80;1.00
12911;DHT22;6523;49.758;6.120;2022-07-23T14:07:45;27.90;1.00
12911;DHT22;6523;49.758;6.120;2022-07-23T14:10:12;28.90;1.00
12911;DHT22;6523;49.758;6.120;2022-07-23T14:12:38;29.10;1.00
12911;DHT22;6523;49.758;6.120;2022-07-23T14:15:05;28.00;1.00
12911;DHT22;6523;49.758;6.120;2022-07-23T14:17:32;27.90;1.00
12911;DHT22;6523;49.758;6.120;2022-07-23T14:19:58;27.40;1.00
12911;DHT22;6523;49.758;6.120;2022-07-23T14:22:24;27.30;1.00
12911;DHT22;6523;49.758;6.120;2022-07-23T14:24:50;28.30;1.00
12911;DHT22;6523;49.758;6.120;2022-07-23T14:27:15;28.40;1.00
12911;DHT22;6523;49.758;6.120;2022-07-23T14:29:42;28.40;1.00
12911;DHT22;6523;49.758;6.120;2022-07-23T14:32:07;27.50;1.00
12911;DHT22;6523;49.758;6.120;2022-07-23T14:34:34;27.00;1.00
12911;DHT22;6523;49.758;6.120;2022-07-23T14:37:00;27.00;1.00
12911;DHT22;6523;49.758;6.120;2022-07-23T14:39:26;27.00;1.00
12911;DHT22;6523;49.758;6.120;2022-07-23T14:41:51;27.20;1.00
12911;DHT22;6523;49.758;6.120;2022-07-23T14:44:17;27.60;1.00
12911;DHT22;6523;49.758;6.120;2022-07-23T14:46:43;27.40;1.00
12911;DHT22;6523;49.758;6.120;2022-07-23T14:49:08;28.00;1.00
12911;DHT22;6523;49.758;6.120;2022-07-23T14:51:34;29.20;1.00
12911;DHT22;6523;49.758;6.120;2022-07-23T14:54:02;30.10;1.00
12911;DHT22;6523;49.758;6.120;2022-07-23T14:56:28;29.50;1.00
12911;DHT22;6523;49.758;6.120;2022-07-23T14:58:53;29.50;1.00
12911;DHT22;6523;49.758;6.120;2022-07-23T15:01:21;30.70;1.00
12911;DHT22;6523;49.758;6.120;2022-07-23T15:03:47;31.10;1.00
12911;DHT22;6523;49.758;6.120;2022-07-23T15:06:13;30.10;1.00
12911;DHT22;6523;49.758;6.120;2022-07-23T15:08:39;29.80;1.00
12911;DHT22;6523;49.758;6.120;2022-07-23T15:11:05;29.20;1.00
12911;DHT22;6523;49.758;6.120;2022-07-23T15:13:30;28.20;1.00
12911;DHT22;6523;49.758;6.120;2022-07-23T15:15:56;28.00;1.00
12911;DHT22;6523;49.758;6.120;2022-07-23T15:18:21;27.90;1.00
12911;DHT22;6523;49.758;6.120;2022-07-23T15:20:47;28.10;1.00
12911;DHT22;6523;49.758;6.120;2022-07-23T15:23:12;27.60;1.00
12911;DHT22;6523;49.758;6.120;2022-07-23T15:25:39;27.50;1.00
12911;DHT22;6523;49.758;6.120;2022-07-23T15:28:04;27.60;1.00
12911;DHT22;6523;49.758;6.120;2022-07-23T15:30:30;28.30;1.00
12911;DHT22;6523;49.758;6.120;2022-07-23T15:32:55;28.70;1.00
12911;DHT22;6523;49.758;6.120;2022-07-23T15:35:23;28.90;1.00
12911;DHT22;6523;49.758;6.120;2022-07-23T15:37:48;29.20;1.00
12911;DHT22;6523;49.758;6.120;2022-07-23T15:40:14;29.30;1.00
12911;DHT22;6523;49.758;6.120;2022-07-23T15:42:39;29.20;1.00
12911;DHT22;6523;49.758;6.120;2022-07-23T15:45:06;29.70;1.00
12911;DHT22;6523;49.758;6.120;2022-07-23T15:47:31;29.80;1.00
12911;DHT22;6523;49.758;6.120;2022-07-23T15:49:57;29.00;1.00
12911;DHT22;6523;49.758;6.120;2022-07-23T15:52:23;28.40;1.00
12911;DHT22;6523;49.758;6.120;2022-07-23T15:54:49;28.90;1.00
12911;DHT22;6523;49.758;6.120;2022-07-23T15:57:14;28.90;1.00
12911;DHT22;6523;49.758;6.120;2022-07-23T15:59:40;29.80;1.00
12911;DHT22;6523;49.758;6.120;2022-07-23T16:02:07;29.40;1.00
12911;DHT22;6523;49.758;6.120;2022-07-23T16:04:32;29.30;1.00
12911;DHT22;6523;49.758;6.120;2022-07-23T16:06:58;29.10;1.00
12911;DHT22;6523;49.758;6.120;2022-07-23T16:09:25;28.80;1.00
12911;DHT22;6523;49.758;6.120;2022-07-23T16:11:51;29.00;1.00
12911;DHT22;6523;49.758;6.120;2022-07-23T16:14:18;28.90;1.00
12911;DHT22;6523;49.758;6.120;2022-07-23T16:16:44;29.30;1.00
12911;DHT22;6523;49.758;6.120;2022-07-23T16:19:10;29.70;1.00
12911;DHT22;6523;49.758;6.120;2022-07-23T16:21:35;30.60;1.00
12911;DHT22;6523;49.758;6.120;2022-07-23T16:24:01;30.50;1.00
12911;DHT22;6523;49.758;6.120;2022-07-23T16:26:26;30.60;1.00
12911;DHT22;6523;49.758;6.120;2022-07-23T16:28:52;30.10;1.00
12911;DHT22;6523;49.758;6.120;2022-07-23T16:31:18;29.90;1.00
12911;DHT22;6523;49.758;6.120;2022-07-23T16:33:44;29.70;1.00
12911;DHT22;6523;49.758;6.120;2022-07-23T16:36:10;29.80;1.00
12911;DHT22;6523;49.758;6.120;2022-07-23T16:38:39;28.90;1.00
12911;DHT22;6523;49.758;6.120;2022-07-23T16:41:05;28.80;1.00
12911;DHT22;6523;49.758;6.120;2022-07-23T16:43:32;29.40;1.00
12911;DHT22;6523;49.758;6.120;2022-07-23T16:45:59;29.90;1.00